Time;durP1;ratioP1;P1;durP2;ratioP2;P2;SDS_P1;SDS_P2;PMS_P1;PMS_P2;Temp;Humidity;BMP_temperature;BMP_pressure;BME280_temperature;BME280_humidity;BME280_pressure;Samples;Min_cycle;Max_cycle;Signal;HPM_P1;HPM_P2
2021/01/12 00:00:28;;;;;;;0.60;0.60;;;6.00;99.90;;;6.34;100.00;-2248.75;5013576;28;20461;-68
2021/01/12 00:02:56;;;;;;;0.60;0.60;;;6.10;99.90;;;6.32;100.00;-2724.06;5014124;28;20490;-64
2021/01/12 00:05:24;;;;;;;0.60;0.50;;;6.00;99.90;;;6.38;100.00;-3601.84;5014625;28;20438;-64
2021/01/12 00:07:51;;;;;;;0.60;0.60;;;6.10;99.90;;;6.48;100.00;-4682.09;5015652;28;20445;-64
2021/01/12 00:10:20;;;;;;;0.60;0.50;;;6.20;99.90;;;6.51;100.00;-5879.66;5015180;28;20449;-65
2021/01/12 00:12:47;;;;;;;0.80;0.80;;;6.20;99.90;;;6.40;100.00;-6579.00;5011887;28;20425;-63
2021/01/12 00:15:15;;;;;;;0.60;0.60;;;6.10;99.90;;;6.25;100.00;-6973.03;5012346;28;20469;-62
2021/01/12 00:17:42;;;;;;;0.60;0.60;;;6.10;99.90;;;6.16;100.00;-6872.66;5014925;28;20902;-65
2021/01/12 00:20:12;;;;;;;0.60;0.50;;;6.00;99.90;;;6.44;100.00;-6983.94;5007546;28;20463;-64
2021/01/12 00:22:39;;;;;;;0.60;0.50;;;6.10;99.90;;;6.53;100.00;-7851.34;5008943;28;20496;-64
2021/01/12 00:25:08;;;;;;;0.70;0.70;;;6.10;99.90;;;6.44;100.00;-8290.34;5007193;28;20602;-63
2021/01/12 00:27:52;;;;;;;0.60;0.60;;;6.10;99.90;;;6.43;100.00;-8769.72;5003166;28;20441;-65
2021/01/12 00:30:22;;;;;;;0.70;0.60;;;6.20;99.90;;;6.47;100.00;-8957.38;5007743;28;20556;-63
2021/01/12 00:32:50;;;;;;;0.60;0.60;;;6.20;99.90;;;6.45;100.00;-9449.03;5013581;28;20441;-64
2021/01/12 00:35:18;;;;;;;0.60;0.53;;;6.20;99.90;;;6.49;100.00;-9386.97;5006529;28;20453;-65
2021/01/12 00:37:45;;;;;;;0.60;0.60;;;6.10;99.90;;;6.56;100.00;-10009.31;5030005;28;20842;-64
2021/01/12 00:40:13;;;;;;;0.60;0.50;;;6.20;99.90;;;6.53;100.00;-10760.38;5007488;28;20452;-64
2021/01/12 00:42:40;;;;;;;0.60;0.60;;;6.30;99.90;;;6.51;100.00;-10879.94;5009051;28;20457;-65
2021/01/12 00:45:10;;;;;;;1.00;1.00;;;6.20;99.90;;;6.50;100.00;-11236.75;5009394;28;20977;-64
2021/01/12 00:47:38;;;;;;;0.60;0.50;;;6.20;99.90;;;6.47;100.00;-11425.97;5014399;28;20434;-64
2021/01/12 00:50:06;;;;;;;0.60;0.60;;;6.20;99.90;;;6.44;100.00;-11672.59;5013802;28;20548;-65
2021/01/12 00:52:33;;;;;;;1.30;1.20;;;6.30;99.90;;;6.45;100.00;-11844.88;5013223;28;20790;-64
2021/01/12 00:55:00;;;;;;;0.60;0.60;;;6.30;99.90;;;6.46;100.00;-11842.50;5012848;28;20495;-63
2021/01/12 00:57:27;;;;;;;0.60;0.60;;;6.30;99.90;;;6.57;100.00;-11986.09;5014509;28;20448;-64
2021/01/12 00:59:54;;;;;;;3.03;1.57;;;6.30;99.90;;;6.44;100.00;-12675.44;5011837;28;21021;-66
2021/01/12 01:02:21;;;;;;;0.63;0.60;;;6.30;99.90;;;6.54;100.00;-12217.78;5013792;28;20563;-63
2021/01/12 01:04:49;;;;;;;0.60;0.60;;;6.30;99.90;;;6.53;100.00;-12237.66;5029515;28;20460;-63
2021/01/12 01:07:16;;;;;;;0.60;0.60;;;6.30;99.90;;;6.60;100.00;-12430.66;5013602;28;20434;-63
2021/01/12 01:09:44;;;;;;;0.60;0.50;;;6.30;99.90;;;6.47;100.00;-12793.09;5013787;28;21030;-63
2021/01/12 01:12:13;;;;;;;0.90;0.90;;;6.30;99.90;;;6.54;100.00;-12981.09;5013644;28;20492;-64
2021/01/12 01:14:40;;;;;;;0.70;0.70;;;6.30;99.90;;;6.49;100.00;-12970.38;5013974;28;20465;-63
2021/01/12 01:17:08;;;;;;;0.60;0.57;;;6.40;99.90;;;6.59;100.00;-12732.31;5003191;28;20454;-63
2021/01/12 01:19:35;;;;;;;0.60;0.60;;;6.30;99.90;;;6.53;100.00;-13596.97;5013145;28;20426;-64
2021/01/12 01:22:03;;;;;;;0.60;0.60;;;6.30;99.90;;;6.47;100.00;-13364.19;5009346;28;20973;-66
2021/01/12 01:24:30;;;;;;;0.60;0.60;;;6.40;99.90;;;6.44;100.00;-13328.75;5011398;28;20438;-64
2021/01/12 01:26:58;;;;;;;0.60;0.60;;;6.40;99.90;;;6.58;100.00;-12914.34;5009321;28;20446;-64
2021/01/12 01:29:25;;;;;;;0.60;0.50;;;6.30;99.90;;;6.45;100.00;-12772.78;5007076;28;20475;-64
2021/01/12 01:31:52;;;;;;;0.97;0.90;;;6.20;99.90;;;6.48;100.00;-12925.34;5006434;28;20518;-64
2021/01/12 01:34:20;;;;;;;0.60;0.50;;;6.30;99.90;;;6.49;100.00;-13139.97;5003408;28;20524;-64
2021/01/12 01:36:47;;;;;;;0.60;0.50;;;6.30;99.90;;;6.57;100.00;-13211.03;5009722;28;20492;-64
2021/01/12 01:39:14;;;;;;;0.60;0.50;;;6.30;99.90;;;6.37;100.00;-13317.69;5013310;28;20446;-64
2021/01/12 01:41:42;;;;;;;0.60;0.50;;;6.30;99.90;;;6.51;100.00;-13040.53;5013236;28;20458;-64
2021/01/12 01:44:10;;;;;;;0.60;0.60;;;6.30;99.90;;;6.59;100.00;-13390.91;5013213;28;20478;-65
2021/01/12 01:46:37;;;;;;;0.60;0.50;;;6.30;99.90;;;6.42;100.00;-13864.50;5012544;28;20450;-66
2021/01/12 01:49:05;;;;;;;0.60;0.60;;;6.30;99.90;;;6.51;100.00;-13683.94;5010906;28;20430;-64
2021/01/12 01:51:32;;;;;;;0.60;0.50;;;6.30;99.90;;;6.37;100.00;-13621.84;5012789;28;20922;-66
2021/01/12 01:53:59;;;;;;;0.60;0.57;;;6.20;99.90;;;6.47;100.00;-13543.66;5013487;28;20469;-65
2021/01/12 01:56:28;;;;;;;0.60;0.60;;;6.20;99.90;;;6.32;100.00;-13885.28;5017921;28;20732;-64
2021/01/12 01:58:55;;;;;;;0.60;0.50;;;6.20;99.90;;;6.40;100.00;-13619.84;5007322;28;21065;-65
2021/01/12 02:01:22;;;;;;;0.60;0.60;;;6.30;99.90;;;6.41;100.00;-13632.47;5003231;28;20641;-64
2021/01/12 02:04:02;;;;;;;0.60;0.60;;;6.30;99.90;;;6.41;100.00;-13647.44;5013238;28;20465;-63
2021/01/12 02:06:32;;;;;;;0.60;0.60;;;6.30;99.90;;;6.44;100.00;-13780.03;5009546;28;20434;-63
2021/01/12 02:09:05;;;;;;;0.60;0.60;;;6.30;99.90;;;6.43;100.00;-13782.38;5013204;28;20840;-64
2021/01/12 02:11:40;;;;;;;0.60;0.50;;;6.30;99.90;;;6.56;100.00;-13477.75;5012943;28;20493;-64
2021/01/12 02:14:15;;;;;;;0.60;0.60;;;6.30;99.90;;;6.49;100.00;-13534.00;5009259;28;20541;-64
2021/01/12 02:16:44;;;;;;;0.60;0.60;;;6.30;99.90;;;6.62;100.00;-13171.81;5001889;28;20430;-65
2021/01/12 02:19:18;;;;;;;0.60;0.60;;;6.30;99.90;;;6.60;100.00;-13642.91;5011709;28;20874;-66
2021/01/12 02:21:49;;;;;;;0.60;0.50;;;6.40;99.90;;;6.58;100.00;-13682.56;5009288;28;20834;-63
2021/01/12 02:24:17;;;;;;;0.60;0.60;;;6.40;99.90;;;6.54;100.00;-13534.78;5013304;28;20439;-63
2021/01/12 02:26:44;;;;;;;0.60;0.50;;;6.40;99.90;;;6.53;100.00;-13644.44;5005358;28;20493;-64
2021/01/12 02:29:11;;;;;;;0.60;0.60;;;6.40;99.90;;;6.52;100.00;-13748.94;5014481;28;20457;-65
2021/01/12 02:31:40;;;;;;;0.67;0.60;;;6.50;99.90;;;6.56;100.00;-13417.81;5016916;28;20445;-65
2021/01/12 02:34:15;;;;;;;0.60;0.60;;;6.40;99.90;;;6.56;100.00;-13477.75;5032228;28;20537;-67
2021/01/12 02:36:43;;;;;;;0.60;0.50;;;6.50;99.90;;;6.57;100.00;-13335.66;5008975;28;21011;-65
2021/01/12 02:39:11;;;;;;;0.60;0.50;;;6.40;99.90;;;6.55;100.00;-13285.53;5013597;28;20453;-66
2021/01/12 02:41:39;;;;;;;0.60;0.60;;;6.40;99.90;;;6.63;100.00;-13167.03;5014915;28;20461;-65
2021/01/12 02:44:11;;;;;;;0.60;0.60;;;6.50;99.90;;;6.62;100.00;-12969.75;5028846;28;20490;-65
2021/01/12 02:46:39;;;;;;;0.60;0.50;;;6.40;99.90;;;6.66;100.00;-12888.09;5012346;28;20435;-66
2021/01/12 02:49:06;;;;;;;0.60;0.60;;;6.40;99.90;;;6.68;100.00;-13102.94;5028688;28;20892;-65
2021/01/12 02:51:35;;;;;;;0.60;0.53;;;6.40;99.90;;;6.69;100.00;-13088.13;5015993;28;20430;-65
2021/01/12 02:54:02;;;;;;;0.60;0.50;;;6.40;99.90;;;6.71;100.00;-13148.22;5003127;28;20447;-65
2021/01/12 02:56:30;;;;;;;0.60;0.57;;;6.50;99.90;;;6.62;100.00;-13339.00;5014556;28;20434;-66
2021/01/12 02:58:57;;;;;;;0.60;0.50;;;6.50;99.90;;;6.61;100.00;-13301.44;5015942;28;20464;-66
2021/01/12 03:01:24;;;;;;;0.60;0.50;;;6.50;99.90;;;6.77;100.00;-12979.47;5000974;28;20465;-66
2021/01/12 03:03:51;;;;;;;0.60;0.60;;;6.60;99.90;;;6.75;100.00;-13313.50;5014768;28;20847;-65
2021/01/12 03:06:18;;;;;;;0.60;0.60;;;6.60;99.90;;;6.72;100.00;-13532.63;5016572;28;20519;-67
2021/01/12 03:08:45;;;;;;;0.60;0.53;;;6.60;99.90;;;6.71;100.00;-13425.22;5014498;28;20545;-66
2021/01/12 03:11:12;;;;;;;0.60;0.50;;;6.60;99.90;;;6.77;100.00;-13443.53;5016592;28;20473;-64
2021/01/12 03:13:39;;;;;;;0.60;0.50;;;6.60;99.90;;;6.83;100.00;-13783.69;5015619;28;20464;-64
2021/01/12 03:16:07;;;;;;;0.70;0.60;;;6.70;99.90;;;6.83;100.00;-13708.84;5011228;28;20462;-65
2021/01/12 03:18:34;;;;;;;0.60;0.60;;;6.60;99.90;;;6.80;100.00;-13663.53;5005316;28;20443;-65
2021/01/12 03:21:01;;;;;;;1.20;1.10;;;6.60;99.90;;;6.69;100.00;-14065.84;5006132;28;20442;-65
2021/01/12 03:23:28;;;;;;;0.60;0.50;;;6.50;99.90;;;6.86;100.00;-13973.78;5015856;28;20445;-65
2021/01/12 03:25:54;;;;;;;1.03;1.00;;;6.50;99.90;;;6.83;100.00;-14307.56;5011306;28;20533;-65
2021/01/12 03:28:22;;;;;;;0.60;0.60;;;6.50;99.90;;;6.84;100.00;-14405.00;5007842;28;20488;-65
2021/01/12 03:30:49;;;;;;;0.60;0.50;;;6.60;99.90;;;6.75;100.00;-14702.91;5008791;28;20939;-66
2021/01/12 03:33:17;;;;;;;0.60;0.60;;;6.60;99.90;;;6.63;100.00;-14945.13;5014985;28;20500;-64
2021/01/12 03:35:44;;;;;;;0.60;0.60;;;6.50;99.90;;;6.70;100.00;-15078.44;5013349;28;20503;-65
2021/01/12 03:38:11;;;;;;;0.60;0.50;;;6.60;99.90;;;6.83;100.00;-15035.94;5031079;28;20446;-64
2021/01/12 03:40:37;;;;;;;0.60;0.60;;;6.50;99.90;;;6.73;100.00;-15298.50;5015087;28;20536;-64
2021/01/12 03:43:04;;;;;;;0.60;0.50;;;6.50;99.90;;;6.70;100.00;-15474.94;5014291;28;20937;-65
2021/01/12 03:45:31;;;;;;;0.70;0.70;;;6.50;99.90;;;6.67;100.00;-15925.53;5009556;28;20441;-65
2021/01/12 03:47:59;;;;;;;0.60;0.60;;;6.50;99.90;;;6.71;100.00;-16021.06;5011852;28;20526;-66
2021/01/12 03:50:28;;;;;;;0.60;0.60;;;6.50;99.90;;;6.74;100.00;-16330.63;5015451;28;20449;-65
2021/01/12 03:52:54;;;;;;;0.60;0.50;;;6.50;99.90;;;6.66;100.00;-16563.25;5014019;28;20437;-66
2021/01/12 03:55:22;;;;;;;0.60;0.60;;;6.40;99.90;;;6.81;100.00;-16788.09;5002186;28;20482;-64
2021/01/12 03:57:49;;;;;;;0.70;0.60;;;6.50;99.90;;;6.78;100.00;-17111.53;5003225;28;20442;-64
2021/01/12 04:00:18;;;;;;;0.60;0.60;;;6.40;99.90;;;6.66;100.00;-17597.38;5010373;28;20470;-64
2021/01/12 04:02:44;;;;;;;0.60;0.60;;;6.40;99.90;;;6.61;100.00;-17957.31;5010861;28;20500;-64
2021/01/12 04:05:12;;;;;;;0.60;0.50;;;6.40;99.90;;;6.78;100.00;-18153.16;5009413;28;20533;-64
2021/01/12 04:07:40;;;;;;;0.60;0.57;;;6.50;99.90;;;6.75;100.00;-18461.34;5015005;28;20492;-64
2021/01/12 04:10:09;;;;;;;0.60;0.50;;;6.50;99.90;;;6.66;100.00;-18825.16;5010722;28;20911;-64
2021/01/12 04:12:36;;;;;;;0.60;0.60;;;6.50;99.90;;;6.67;100.00;-19149.25;5009047;28;20954;-64
2021/01/12 04:15:05;;;;;;;0.60;0.50;;;6.50;99.90;;;6.58;100.00;-19438.16;5012927;28;20465;-64
2021/01/12 04:17:32;;;;;;;0.60;0.60;;;6.50;99.90;;;6.69;100.00;-19625.34;5007047;28;20938;-65
2021/01/12 04:19:59;;;;;;;0.60;0.50;;;6.50;99.90;;;6.70;100.00;-19834.59;5014815;28;20764;-64
2021/01/12 04:22:26;;;;;;;0.60;0.60;;;6.50;99.90;;;6.66;100.00;-20094.94;5012387;28;20977;-65
2021/01/12 04:24:53;;;;;;;0.70;0.60;;;6.50;99.90;;;6.71;100.00;-20285.47;5013819;28;20853;-65
2021/01/12 04:27:20;;;;;;;0.70;0.70;;;6.50;99.90;;;6.75;100.00;-20401.19;5028761;28;20441;-64
2021/01/12 04:29:47;;;;;;;0.60;0.50;;;6.50;99.90;;;6.77;100.00;-20548.59;5013976;28;20498;-65
2021/01/12 04:32:14;;;;;;;0.60;0.60;;;6.50;99.90;;;6.72;100.00;-20714.00;5014810;28;20884;-64
2021/01/12 04:34:41;;;;;;;0.60;0.50;;;6.50;99.90;;;6.82;100.00;-20853.53;5014139;28;20790;-65
2021/01/12 04:37:08;;;;;;;0.60;0.50;;;6.60;99.90;;;6.78;100.00;-20866.75;5013717;28;20473;-64
2021/01/12 04:39:34;;;;;;;0.60;0.60;;;6.60;99.90;;;6.64;100.00;-20863.00;5012938;28;20433;-65
2021/01/12 04:42:03;;;;;;;0.60;0.50;;;6.50;99.90;;;6.62;100.00;-20862.44;5013145;28;20489;-65
2021/01/12 04:44:30;;;;;;;0.60;0.57;;;6.50;99.90;;;6.74;100.00;-20865.63;5010568;28;20560;-64
2021/01/12 04:46:57;;;;;;;0.60;0.50;;;6.50;99.90;;;6.75;100.00;-20866.03;5013753;28;20434;-65
2021/01/12 04:49:24;;;;;;;0.60;0.60;;;6.50;99.90;;;6.70;100.00;-20864.66;4998322;28;20437;-64
2021/01/12 04:51:52;;;;;;;0.60;0.50;;;6.50;99.90;;;6.63;100.00;-20862.72;5004556;28;20478;-65
2021/01/12 04:54:19;;;;;;;0.60;0.50;;;6.50;99.90;;;6.64;100.00;-20862.84;5011634;28;20446;-63
2021/01/12 04:56:47;;;;;;;0.60;0.60;;;6.50;99.90;;;6.77;100.00;-20866.47;5013366;28;20786;-63
2021/01/12 04:59:27;;;;;;;0.60;0.50;;;6.50;99.90;;;6.75;100.00;-20865.91;5013858;28;20497;-67
2021/01/12 05:01:54;;;;;;;0.60;0.50;;;6.50;99.90;;;6.84;100.00;-20868.28;5002569;28;20477;-64
2021/01/12 05:04:21;;;;;;;0.60;0.60;;;6.50;99.90;;;6.74;100.00;-20865.78;5011914;28;20443;-64
2021/01/12 05:06:48;;;;;;;0.60;0.53;;;6.50;99.90;;;6.88;100.00;-20869.53;5009775;28;20496;-64
2021/01/12 05:09:21;;;;;;;0.60;0.50;;;6.50;99.90;;;6.87;100.00;-20869.09;5013440;28;20805;-64
2021/01/12 05:11:48;;;;;;;0.60;0.50;;;6.50;99.90;;;6.81;100.00;-20867.44;5001971;28;20469;-64
2021/01/12 05:14:17;;;;;;;0.60;0.60;;;6.50;99.90;;;6.85;100.00;-20868.53;5013305;28;20477;-64
2021/01/12 05:16:50;;;;;;;0.60;0.50;;;6.50;99.90;;;6.86;100.00;-20868.81;5012592;28;20943;-64
2021/01/12 05:19:21;;;;;;;0.60;0.60;;;6.50;99.90;;;6.87;100.00;-20869.25;5013095;28;20458;-64
2021/01/12 05:21:50;;;;;;;0.60;0.53;;;6.50;99.90;;;6.77;100.00;-20866.47;5012460;28;20546;-64
2021/01/12 05:24:18;;;;;;;0.60;0.50;;;6.50;99.90;;;6.85;100.00;-20868.69;5013503;28;20515;-63
2021/01/12 05:26:46;;;;;;;0.60;0.50;;;6.60;99.90;;;6.69;100.00;-20864.38;5012210;28;20437;-64
2021/01/12 05:29:14;;;;;;;0.60;0.60;;;6.50;99.90;;;6.89;100.00;-20869.66;5013227;28;20465;-63
2021/01/12 05:31:45;;;;;;;0.60;0.53;;;6.60;99.90;;;6.85;100.00;-20868.53;5009451;28;20450;-64
2021/01/12 05:34:16;;;;;;;0.60;0.50;;;6.60;99.90;;;6.78;100.00;-20866.88;5013326;28;20925;-64
2021/01/12 05:36:49;;;;;;;0.60;0.50;;;6.60;99.90;;;6.75;100.00;-20865.91;5000357;28;20430;-64
2021/01/12 05:39:19;;;;;;;0.60;0.60;;;6.50;99.90;;;6.80;100.00;-20867.16;5013105;28;20438;-64
2021/01/12 05:41:48;;;;;;;0.60;0.60;;;6.50;99.90;;;6.88;100.00;-20869.53;5013201;28;20810;-63
2021/01/12 05:44:20;;;;;;;0.60;0.60;;;6.60;99.90;;;6.76;100.00;-20866.19;5013630;28;20478;-64
2021/01/12 05:46:51;;;;;;;0.70;0.60;;;6.60;99.90;;;6.86;100.00;-20868.97;5012400;28;20493;-64
2021/01/12 05:49:20;;;;;;;0.60;0.57;;;6.60;99.90;;;6.80;100.00;-20867.16;5012813;28;20772;-64
2021/01/12 05:51:50;;;;;;;0.60;0.50;;;6.60;99.90;;;6.88;100.00;-20869.38;5028006;28;20851;-65
2021/01/12 05:54:33;;;;;;;0.60;0.60;;;6.60;99.90;;;6.76;100.00;-20866.19;5020470;28;20434;-64
2021/01/12 05:57:06;;;;;;;0.60;0.50;;;6.60;99.90;;;6.87;100.00;-20869.09;5010644;28;20845;-64
2021/01/12 05:59:35;;;;;;;0.60;0.53;;;6.60;99.90;;;6.80;100.00;-20867.16;5012585;28;20492;-66
2021/01/12 06:02:08;;;;;;;0.60;0.50;;;6.60;99.90;;;6.81;100.00;-20867.56;5010774;28;20522;-64
2021/01/12 06:04:37;;;;;;;0.60;0.50;;;6.60;99.90;;;6.84;100.00;-20868.28;5010057;28;20491;-65
2021/01/12 06:07:05;;;;;;;0.60;0.60;;;6.60;99.90;;;6.76;100.00;-20866.31;4998269;28;20991;-64
2021/01/12 06:09:32;;;;;;;0.60;0.50;;;6.70;99.90;;;6.92;100.00;-20870.50;4995298;28;20439;-65
2021/01/12 06:11:59;;;;;;;0.60;0.50;;;6.70;99.90;;;6.81;100.00;-20867.44;5009836;28;20439;-65
2021/01/12 06:14:28;;;;;;;0.60;0.60;;;6.60;99.90;;;6.80;100.00;-20867.28;5012346;28;20600;-64
2021/01/12 06:16:56;;;;;;;0.60;0.60;;;6.60;99.90;;;6.82;100.00;-20867.72;5011567;28;20477;-65
2021/01/12 06:19:27;;;;;;;0.60;0.50;;;6.60;99.90;;;6.72;100.00;-20865.06;5011135;28;20456;-64
2021/01/12 06:22:18;;;;;;;0.60;0.50;;;6.60;99.90;;;6.86;100.00;-20868.81;5008505;28;20489;-64
2021/01/12 06:25:06;;;;;;;0.60;0.50;;;6.60;99.90;;;6.69;100.00;-20864.25;5010883;28;20458;-64
2021/01/12 06:27:35;;;;;;;0.60;0.60;;;6.60;99.90;;;6.87;100.00;-20869.25;5011052;28;20438;-64
2021/01/12 06:30:06;;;;;;;0.60;0.57;;;6.60;99.90;;;6.98;100.00;-20872.28;5012034;28;20497;-65
2021/01/12 06:32:35;;;;;;;0.70;0.60;;;6.70;99.90;;;6.93;100.00;-20870.78;5006491;28;20837;-65
2021/01/12 06:35:07;;;;;;;0.60;0.60;;;6.70;99.90;;;6.81;100.00;-20867.44;5003255;28;20535;-65
2021/01/12 06:37:36;;;;;;;0.60;0.60;;;6.70;99.90;;;6.92;100.00;-20870.50;5013180;28;20927;-65
2021/01/12 06:40:07;;;;;;;0.60;0.50;;;6.70;99.90;;;6.82;100.00;-20867.72;5011997;28;20441;-64
2021/01/12 06:42:35;;;;;;;0.60;0.60;;;6.70;99.90;;;6.84;100.00;-20868.28;5011193;28;20469;-64
2021/01/12 06:45:06;;;;;;;0.60;0.60;;;6.70;99.90;;;6.92;100.00;-20870.50;5010284;28;20471;-64
2021/01/12 06:47:34;;;;;;;0.60;0.60;;;6.70;99.90;;;6.88;100.00;-20869.38;5012613;28;20442;-64
2021/01/12 06:50:10;;;;;;;0.60;0.60;;;6.70;99.90;;;6.90;100.00;-20869.94;5006957;28;20434;-65
2021/01/12 06:52:45;;;;;;;0.60;0.50;;;6.80;99.90;;;6.90;100.00;-20869.94;5008776;28;21038;-64
2021/01/12 06:55:15;;;;;;;0.60;0.60;;;6.80;99.90;;;6.92;100.00;-20870.50;5024253;28;20429;-64
2021/01/12 06:57:44;;;;;;;0.60;0.60;;;6.80;99.90;;;7.01;100.00;-20873.13;5010941;28;20480;-63
2021/01/12 07:00:13;;;;;;;0.60;0.50;;;6.80;99.90;;;7.04;100.00;-20873.81;5008502;28;20520;-64
2021/01/12 07:02:40;;;;;;;0.60;0.60;;;6.80;99.90;;;6.96;100.00;-20871.59;5010026;28;20515;-64
2021/01/12 07:05:12;;;;;;;0.60;0.60;;;6.80;99.90;;;6.94;100.00;-20871.06;5012733;28;20494;-64
2021/01/12 07:07:42;;;;;;;0.60;0.50;;;6.80;99.90;;;7.04;100.00;-20873.69;5010047;28;20445;-64
2021/01/12 07:10:11;;;;;;;0.60;0.60;;;6.70;99.90;;;7.01;100.00;-20873.00;5009937;28;20440;-64
2021/01/12 07:12:40;;;;;;;0.60;0.50;;;6.70;99.90;;;7.06;100.00;-20874.38;5012185;28;20499;-64
2021/01/12 07:15:10;;;;;;;0.60;0.60;;;6.80;99.90;;;7.02;100.00;-20873.28;5014139;28;20466;-64
2021/01/12 07:17:43;;;;;;;0.60;0.60;;;6.80;99.90;;;7.02;100.00;-20873.41;5016205;28;20498;-64
2021/01/12 07:20:15;;;;;;;0.60;0.53;;;6.80;99.90;;;7.11;100.00;-20875.63;5008462;28;20483;-65
2021/01/12 07:22:52;;;;;;;0.60;0.50;;;6.80;99.90;;;6.98;100.00;-20872.16;5014995;28;20520;-64
2021/01/12 07:25:22;;;;;;;0.60;0.60;;;6.90;99.90;;;7.07;100.00;-20874.53;5015419;28;20456;-64
2021/01/12 07:28:05;;;;;;;0.60;0.57;;;6.80;99.90;;;7.02;100.00;-20873.41;5016200;28;20972;-64
2021/01/12 07:30:34;;;;;;;0.60;0.50;;;6.80;99.90;;;7.08;100.00;-20874.81;5015152;28;20441;-65
2021/01/12 07:33:04;;;;;;;0.60;0.60;;;6.80;99.90;;;7.14;100.00;-20876.47;5013422;28;20824;-64
2021/01/12 07:35:33;;;;;;;0.60;0.50;;;6.80;99.90;;;7.18;100.00;-20877.56;5015851;28;20437;-64
2021/01/12 07:38:01;;;;;;;0.60;0.60;;;6.90;99.90;;;7.24;100.00;-20879.38;5005462;28;20459;-64
2021/01/12 07:40:29;;;;;;;0.60;0.50;;;6.90;99.90;;;7.13;100.00;-20876.31;5014159;28;20432;-66
2021/01/12 07:42:59;;;;;;;0.60;0.60;;;6.90;99.90;;;7.20;100.00;-20878.28;5030719;28;20486;-67
2021/01/12 07:45:32;;;;;;;0.60;0.50;;;6.90;99.90;;;7.28;100.00;-20880.22;5009121;28;20451;-64
2021/01/12 07:48:01;;;;;;;0.60;0.57;;;6.80;99.90;;;7.13;100.00;-20876.31;5009696;28;20434;-64
2021/01/12 07:50:30;;;;;;;0.60;0.60;;;6.90;99.90;;;7.27;100.00;-20880.06;5015709;28;20442;-64
2021/01/12 07:52:58;;;;;;;0.60;0.60;;;6.90;99.90;;;7.26;100.00;-20879.94;5029785;28;20445;-63
2021/01/12 07:55:27;;;;;;;0.60;0.50;;;6.90;99.90;;;7.20;100.00;-20878.28;5014475;28;20472;-65
2021/01/12 07:57:54;;;;;;;0.60;0.60;;;6.90;99.90;;;7.26;100.00;-20879.94;5015049;28;20846;-65
2021/01/12 08:00:22;;;;;;;0.60;0.53;;;6.90;99.90;;;7.36;100.00;-20882.56;5015871;28;20492;-66
2021/01/12 08:02:52;;;;;;;0.60;0.50;;;6.90;99.90;;;7.27;100.00;-20880.06;5015065;28;20465;-64
2021/01/12 08:05:24;;;;;;;0.60;0.60;;;6.90;99.90;;;7.33;100.00;-20881.59;5007284;28;20511;-64
2021/01/12 08:07:58;;;;;;;0.60;0.60;;;7.00;99.90;;;7.38;100.00;-20883.00;5012450;28;20442;-66
2021/01/12 08:10:27;;;;;;;0.60;0.50;;;7.00;99.90;;;7.34;100.00;-20881.88;5010392;28;20473;-64
2021/01/12 08:13:05;;;;;;;0.60;0.50;;;7.00;99.90;;;7.32;100.00;-20881.31;5015088;28;20911;-66
2021/01/12 08:15:33;;;;;;;0.60;0.50;;;7.00;99.90;;;7.32;100.00;-20881.47;5012913;28;20980;-65
2021/01/12 08:18:00;;;;;;;0.60;0.60;;;7.10;99.90;;;7.40;100.00;-20883.53;5007138;28;20431;-65
2021/01/12 08:20:29;;;;;;;0.60;0.50;;;7.10;99.90;;;7.35;100.00;-20882.28;5012489;28;20847;-65
2021/01/12 08:22:57;;;;;;;0.60;0.50;;;7.00;99.90;;;7.46;100.00;-20885.22;5010101;28;20506;-66
2021/01/12 08:25:25;;;;;;;0.60;0.50;;;7.10;99.90;;;7.42;100.00;-20884.09;5003544;28;20938;-66
2021/01/12 08:27:56;;;;;;;0.60;0.60;;;7.10;99.90;;;7.50;100.00;-20886.31;5012230;28;20815;-65
2021/01/12 08:30:25;;;;;;;0.60;0.50;;;7.10;99.90;;;7.45;100.00;-20884.94;5012838;28;20460;-65
2021/01/12 08:33:01;;;;;;;0.60;0.60;;;7.10;99.90;;;7.45;100.00;-20884.94;5010846;28;20428;-65
2021/01/12 08:35:31;;;;;;;0.60;0.50;;;7.10;99.90;;;7.56;100.00;-20887.84;5000505;28;20482;-65
2021/01/12 08:38:00;;;;;;;0.60;0.50;;;7.20;99.90;;;7.54;100.00;-20887.44;5003338;28;20444;-65
2021/01/12 08:40:46;;;;;;;0.60;0.60;;;7.20;99.90;;;7.57;100.00;-20888.28;5014562;28;21002;-67
2021/01/12 08:43:18;;;;;;;0.60;0.60;;;7.20;99.90;;;7.47;100.00;-20885.50;5013465;28;20474;-66
2021/01/12 08:45:46;;;;;;;0.60;0.50;;;7.20;99.90;;;7.50;100.00;-20886.31;5011817;28;20440;-64
2021/01/12 08:48:15;;;;;;;0.60;0.60;;;7.20;99.90;;;7.56;100.00;-20888.00;5010867;28;20435;-66
2021/01/12 08:50:44;;;;;;;0.60;0.60;;;7.30;99.90;;;7.56;100.00;-20888.00;5011962;28;20839;-65
2021/01/12 08:53:14;;;;;;;0.60;0.50;;;7.30;99.90;;;7.64;100.00;-20890.06;5012861;28;20558;-64
2021/01/12 08:55:41;;;;;;;0.60;0.60;;;7.30;99.90;;;7.64;100.00;-20890.22;5010487;28;20805;-66
2021/01/12 08:58:11;;;;;;;0.60;0.60;;;7.20;99.90;;;7.63;100.00;-20889.78;5010926;28;20444;-66
2021/01/12 09:00:41;;;;;;;0.80;0.80;;;7.20;99.90;;;7.59;100.00;-20888.81;5011153;28;20459;-65
2021/01/12 09:03:14;;;;;;;0.60;0.50;;;7.30;99.90;;;7.71;100.00;-20892.16;4999194;28;21039;-66
2021/01/12 09:05:43;;;;;;;0.70;0.70;;;7.30;99.90;;;7.60;100.00;-20889.09;5008939;28;20458;-66
2021/01/12 09:08:15;;;;;;;0.60;0.50;;;7.30;99.90;;;7.79;100.00;-20894.09;5013831;28;20445;-67
2021/01/12 09:10:43;;;;;;;0.63;0.60;;;7.30;99.90;;;7.75;100.00;-20893.25;5013769;28;20921;-65
2021/01/12 09:13:10;;;;;;;0.60;0.57;;;7.30;99.90;;;7.75;100.00;-20893.13;5012277;28;21018;-66
2021/01/12 09:15:40;;;;;;;0.60;0.50;;;7.30;99.90;;;7.72;100.00;-20892.44;5013659;28;20446;-66
2021/01/12 09:18:13;;;;;;;0.60;0.60;;;7.40;99.90;;;7.94;100.00;-20898.25;5013141;28;20490;-66
2021/01/12 09:20:40;;;;;;;0.60;0.60;;;7.40;99.90;;;7.92;100.00;-20897.72;5012254;28;20436;-66
2021/01/12 09:23:09;;;;;;;0.60;0.60;;;7.40;99.90;;;7.79;100.00;-20894.25;5013837;28;20460;-65
2021/01/12 09:25:38;;;;;;;0.60;0.60;;;7.40;99.90;;;7.94;100.00;-20898.25;5001542;28;20497;-65
2021/01/12 09:28:14;;;;;;;0.60;0.50;;;7.40;99.90;;;8.01;100.00;-20900.19;5014241;28;20790;-65
2021/01/12 09:30:44;;;;;;;0.60;0.60;;;7.40;99.90;;;7.97;100.00;-20899.09;5011135;28;20442;-66
2021/01/12 09:33:13;;;;;;;0.60;0.50;;;7.50;99.90;;;8.03;100.00;-20900.63;5011880;28;20436;-66
2021/01/12 09:35:40;;;;;;;0.60;0.60;;;7.50;99.90;;;8.01;100.00;-20900.19;5013303;28;20497;-66
2021/01/12 09:38:08;;;;;;;0.60;0.60;;;7.50;99.90;;;8.04;100.00;-20901.03;5014177;28;20470;-65
2021/01/12 09:40:35;;;;;;;0.63;0.60;;;7.50;99.90;;;8.16;100.00;-20904.22;5010421;28;20447;-66
2021/01/12 09:43:02;;;;;;;0.70;0.60;;;7.50;99.90;;;8.21;100.00;-20905.75;5011655;28;20472;-66
2021/01/12 09:45:30;;;;;;;0.70;0.67;;;7.60;99.90;;;8.21;100.00;-20905.63;5013316;28;20538;-66
2021/01/12 09:48:00;;;;;;;0.70;0.63;;;7.60;99.90;;;8.27;100.00;-20907.28;5013578;28;20941;-66
2021/01/12 09:50:27;;;;;;;0.70;0.70;;;7.60;99.90;;;8.06;100.00;-20901.59;5027190;28;20948;-66
2021/01/12 09:52:56;;;;;;;0.60;0.60;;;7.60;99.90;;;8.24;100.00;-20906.59;5008655;28;20442;-69
2021/01/12 09:55:23;;;;;;;0.60;0.60;;;7.60;99.90;;;8.30;100.00;-20907.97;5004540;28;20796;-66
2021/01/12 09:57:50;;;;;;;0.60;0.60;;;7.60;99.90;;;8.26;100.00;-20906.88;5028290;28;20443;-66
2021/01/12 10:00:18;;;;;;;0.60;0.60;;;7.60;99.90;;;8.31;100.00;-20908.25;5011200;28;20464;-67
2021/01/12 10:02:45;;;;;;;0.70;0.60;;;7.60;99.90;;;8.38;100.00;-20910.34;5008828;28;20459;-67
2021/01/12 10:05:13;;;;;;;0.60;0.60;;;7.70;99.90;;;8.40;100.00;-20910.88;5012813;28;20511;-65
2021/01/12 10:07:40;;;;;;;0.60;0.60;;;7.80;99.90;;;8.42;100.00;-20911.44;5002920;28;20787;-66
2021/01/12 10:10:08;;;;;;;0.60;0.60;;;7.80;99.90;;;8.43;100.00;-20911.72;5011339;28;21030;-65
2021/01/12 10:12:37;;;;;;;0.60;0.60;;;7.90;99.90;;;8.61;100.00;-20916.44;5012033;28;20450;-65
2021/01/12 10:15:07;;;;;;;0.60;0.60;;;7.90;99.90;;;8.70;100.00;-20919.06;5012684;28;20460;-64
2021/01/12 10:17:34;;;;;;;0.60;0.60;;;8.00;99.90;;;8.80;100.00;-20921.56;5012781;28;20431;-65
2021/01/12 10:20:01;;;;;;;0.60;0.60;;;8.00;99.90;;;8.64;100.00;-20917.41;5027047;28;20427;-65
2021/01/12 10:22:29;;;;;;;0.70;0.70;;;8.00;99.90;;;8.59;100.00;-20916.03;5012878;28;20441;-65
2021/01/12 10:24:59;;;;;;;0.60;0.60;;;8.00;99.90;;;8.77;100.00;-20920.88;5011170;28;20435;-66
2021/01/12 10:27:33;;;;;;;0.60;0.60;;;8.00;99.90;;;8.76;100.00;-20920.59;4999206;28;20861;-66